createdAt,value
2023-03-15T00:01:14.451Z,39.25
2023-03-15T00:03:42.663Z,39.34
2023-03-15T00:06:09.869Z,39.66
2023-03-15T00:08:37.033Z,39.44
2023-03-15T00:11:03.904Z,39.65
2023-03-15T00:13:31.516Z,39.68
2023-03-15T00:16:00.676Z,39.71
2023-03-15T00:18:27.720Z,39.43
2023-03-15T00:20:54.689Z,39.98
2023-03-15T00:23:23.004Z,39.98
2023-03-15T00:25:51.650Z,40.00
2023-03-15T00:28:18.852Z,40.12
2023-03-15T00:30:46.115Z,40.42
2023-03-15T00:33:15.152Z,40.22
2023-03-15T00:35:44.187Z,40.40
2023-03-15T00:38:13.232Z,40.61
2023-03-15T00:40:41.946Z,40.76
2023-03-15T00:43:08.845Z,41.03
2023-03-15T00:45:36.463Z,41.14
2023-03-15T00:48:04.306Z,41.02
2023-03-15T00:50:31.079Z,41.20
2023-03-15T00:52:57.785Z,41.37
2023-03-15T00:55:24.437Z,41.30
2023-03-15T00:57:51.097Z,41.73
2023-03-15T01:00:23.564Z,41.89
2023-03-15T01:02:52.465Z,41.74
2023-03-15T01:05:21.268Z,42.21
2023-03-15T01:07:49.023Z,41.67
2023-03-15T01:10:16.576Z,42.10
2023-03-15T01:12:44.221Z,41.72
2023-03-15T01:15:14.312Z,41.89
2023-03-15T01:17:42.161Z,41.81
2023-03-15T01:20:12.097Z,41.95
2023-03-15T01:22:38.875Z,42.20
2023-03-15T01:25:08.643Z,42.43
2023-03-15T01:27:35.660Z,42.65
2023-03-15T01:30:02.880Z,43.05
2023-03-15T01:32:29.638Z,43.01
2023-03-15T01:34:56.766Z,43.60
2023-03-15T01:37:24.037Z,43.77
2023-03-15T01:39:51.190Z,43.49
2023-03-15T01:42:18.017Z,44.04
2023-03-15T01:44:59.328Z,44.07
2023-03-15T01:47:27.149Z,44.20
2023-03-15T01:50:06.390Z,43.97
2023-03-15T01:52:36.726Z,43.81
2023-03-15T01:55:10.639Z,43.83
2023-03-15T01:57:55.594Z,43.81
2023-03-15T02:00:24.487Z,43.74
2023-03-15T02:03:18.224Z,43.98
2023-03-15T02:05:54.061Z,43.64
2023-03-15T02:08:32.331Z,44.10
2023-03-15T02:11:03.428Z,44.00
2023-03-15T02:13:32.882Z,44.43
2023-03-15T02:16:06.124Z,44.53
2023-03-15T02:18:37.962Z,45.00
2023-03-15T02:21:04.742Z,45.07
2023-03-15T02:23:33.424Z,45.09
2023-03-15T02:26:18.358Z,45.26
2023-03-15T02:28:46.274Z,45.67
2023-03-15T02:31:14.268Z,46.14
2023-03-15T02:33:46.560Z,46.14
2023-03-15T02:36:20.439Z,45.67
2023-03-15T02:38:48.868Z,45.39
2023-03-15T02:41:30.119Z,45.34
2023-03-15T02:44:06.266Z,45.29
2023-03-15T02:46:33.923Z,45.35
2023-03-15T02:49:01.915Z,45.23
2023-03-15T02:51:29.689Z,45.39
2023-03-15T02:53:56.976Z,45.18
2023-03-15T02:56:25.804Z,45.23
2023-03-15T02:58:52.644Z,45.02
2023-03-15T03:01:19.599Z,44.85
2023-03-15T03:03:47.327Z,44.54
2023-03-15T03:06:15.685Z,44.49
2023-03-15T03:08:46.572Z,44.49
2023-03-15T03:11:15.475Z,44.75
2023-03-15T03:13:42.811Z,45.03
2023-03-15T03:16:09.866Z,45.05
2023-03-15T03:18:37.161Z,44.78
2023-03-15T03:21:07.360Z,44.95
2023-03-15T03:23:35.827Z,45.28
2023-03-15T03:26:10.769Z,44.73
2023-03-15T03:28:37.493Z,44.83
2023-03-15T03:31:04.788Z,45.07
2023-03-15T03:33:32.100Z,44.97
2023-03-15T03:36:03.781Z,45.17
2023-03-15T03:38:30.704Z,45.21
2023-03-15T03:40:58.799Z,44.68
2023-03-15T03:43:27.355Z,44.87
2023-03-15T03:45:54.092Z,44.88
2023-03-15T03:48:20.784Z,45.47
2023-03-15T03:50:47.549Z,45.88
2023-03-15T03:53:14.210Z,45.68
2023-03-15T03:55:42.140Z,45.73
2023-03-15T03:58:09.231Z,45.28
2023-03-15T04:00:41.182Z,45.05
2023-03-15T04:03:09.061Z,45.20
2023-03-15T04:05:37.648Z,45.12
2023-03-15T04:08:04.905Z,45.22
2023-03-15T04:10:36.668Z,44.91
2023-03-15T04:13:03.543Z,45.16
2023-03-15T04:15:30.905Z,45.23
2023-03-15T04:17:58.357Z,45.19
2023-03-15T04:20:33.860Z,45.09
2023-03-15T04:23:01.774Z,45.11
2023-03-15T04:25:51.186Z,45.06
2023-03-15T04:28:37.489Z,45.14
2023-03-15T04:31:28.560Z,45.12
2023-03-15T04:34:28.950Z,44.92
2023-03-15T04:37:02.952Z,45.16
2023-03-15T04:39:38.702Z,45.22
2023-03-15T04:42:31.049Z,45.24
2023-03-15T04:45:11.406Z,45.27
2023-03-15T04:48:04.602Z,45.07
2023-03-15T04:50:49.718Z,45.28
2023-03-15T04:53:22.311Z,45.45
2023-03-15T04:56:04.728Z,45.19
2023-03-15T04:58:34.681Z,45.02
2023-03-15T05:01:08.624Z,44.90
2023-03-15T05:03:51.065Z,44.59
2023-03-15T05:06:50.668Z,44.56
2023-03-15T05:09:41.372Z,43.92
2023-03-15T05:12:24.970Z,44.00
2023-03-15T05:15:01.276Z,43.94
2023-03-15T05:17:54.532Z,43.92
2023-03-15T05:20:40.326Z,43.49
2023-03-15T05:23:15.704Z,43.61
2023-03-15T05:26:08.610Z,43.57
2023-03-15T05:28:47.496Z,43.59
2023-03-15T05:31:20.419Z,43.59
2023-03-15T05:34:25.819Z,43.40
2023-03-15T05:37:12.387Z,43.31
2023-03-15T05:39:56.404Z,42.96
2023-03-15T05:42:43.142Z,43.04
2023-03-15T05:45:28.222Z,43.14
2023-03-15T05:47:58.132Z,43.07
2023-03-15T05:50:53.956Z,42.97
2023-03-15T05:53:33.792Z,43.21
2023-03-15T05:56:23.881Z,43.25
2023-03-15T05:59:15.207Z,43.15
2023-03-15T06:02:07.126Z,42.71
2023-03-15T06:04:42.568Z,42.81
2023-03-15T06:07:10.339Z,42.94
2023-03-15T06:09:37.935Z,43.09
2023-03-15T06:12:05.142Z,42.78
2023-03-15T06:14:31.936Z,42.70
2023-03-15T06:17:03.236Z,42.42
2023-03-15T06:19:30.590Z,42.15
2023-03-15T06:21:57.635Z,41.55
2023-03-15T06:24:40.562Z,41.60
2023-03-15T06:27:07.710Z,41.05
2023-03-15T06:29:35.362Z,41.14
2023-03-15T06:32:03.022Z,41.34
2023-03-15T06:34:29.869Z,41.17
2023-03-15T06:36:56.621Z,41.21
2023-03-15T06:39:23.559Z,41.22
2023-03-15T06:41:53.388Z,41.33
2023-03-15T06:44:21.055Z,41.45
2023-03-15T06:46:51.565Z,41.48
2023-03-15T06:49:18.249Z,41.36
2023-03-15T06:51:44.941Z,41.14
2023-03-15T06:54:11.704Z,41.42
2023-03-15T06:56:38.728Z,41.44
2023-03-15T06:59:05.612Z,41.24
2023-03-15T07:01:32.850Z,41.24
2023-03-15T07:04:00.514Z,41.01
2023-03-15T07:06:27.847Z,41.20
2023-03-15T07:08:54.604Z,40.95
2023-03-15T07:11:21.236Z,40.63
2023-03-15T07:13:48.193Z,40.41
2023-03-15T07:16:14.755Z,40.45
2023-03-15T07:18:41.449Z,40.06
2023-03-15T07:21:08.145Z,40.15
2023-03-15T07:23:35.133Z,39.90
2023-03-15T07:26:01.909Z,39.80
2023-03-15T07:28:28.831Z,39.59
2023-03-15T07:31:03.397Z,39.42
2023-03-15T07:33:32.335Z,39.43
2023-03-15T07:35:59.906Z,39.31
2023-03-15T07:38:28.304Z,39.21
2023-03-15T07:40:54.953Z,39.14
2023-03-15T07:43:22.264Z,39.42
2023-03-15T07:45:50.879Z,39.30
2023-03-15T07:48:17.914Z,39.35
2023-03-15T07:50:45.262Z,39.36
2023-03-15T07:53:12.618Z,39.15
2023-03-15T07:55:39.579Z,39.30
2023-03-15T07:58:06.616Z,39.55
2023-03-15T08:00:33.343Z,39.45
2023-03-15T08:03:00.549Z,39.02
2023-03-15T08:05:29.178Z,39.01
2023-03-15T08:07:56.119Z,38.49
2023-03-15T08:10:22.967Z,38.41
2023-03-15T08:12:49.605Z,37.87
2023-03-15T08:15:17.468Z,37.60
2023-03-15T08:17:46.099Z,37.77
2023-03-15T08:20:22.325Z,37.90
2023-03-15T08:22:50.738Z,38.06
2023-03-15T08:25:21.527Z,37.66
2023-03-15T08:27:49.196Z,37.04
2023-03-15T08:30:17.447Z,36.79
2023-03-15T08:32:46.016Z,37.02
2023-03-15T08:35:15.815Z,36.82
2023-03-15T08:37:47.164Z,36.90
2023-03-15T08:40:25.021Z,36.92
2023-03-15T08:42:55.438Z,36.89
2023-03-15T08:45:24.642Z,37.21
2023-03-15T08:47:58.966Z,37.76
2023-03-15T08:50:29.439Z,38.30
2023-03-15T08:52:56.117Z,38.25
2023-03-15T08:55:23.179Z,38.22
2023-03-15T08:57:49.914Z,37.95
2023-03-15T09:00:19.637Z,38.18
2023-03-15T09:02:51.389Z,37.68
2023-03-15T09:05:19.488Z,37.64
2023-03-15T09:07:46.583Z,37.05
2023-03-15T09:10:15.596Z,36.93
2023-03-15T09:12:44.638Z,37.16
2023-03-15T09:15:11.735Z,37.16
2023-03-15T09:17:42.066Z,36.95
2023-03-15T09:20:14.264Z,37.27
2023-03-15T09:22:42.345Z,37.08
2023-03-15T09:25:10.378Z,37.15
2023-03-15T09:27:37.328Z,37.45
2023-03-15T09:30:04.839Z,36.92
2023-03-15T09:32:35.707Z,36.76
2023-03-15T09:35:07.714Z,36.69
2023-03-15T09:37:35.040Z,36.46
2023-03-15T09:40:01.798Z,36.54
2023-03-15T09:42:43.210Z,35.77
2023-03-15T09:45:34.792Z,35.70
2023-03-15T09:48:19.962Z,35.37
2023-03-15T09:51:11.605Z,35.28
2023-03-15T09:53:46.016Z,35.39
2023-03-15T09:56:31.201Z,35.67
2023-03-15T09:59:03.664Z,35.82
2023-03-15T10:01:34.199Z,35.62
2023-03-15T10:04:30.422Z,35.53
2023-03-15T10:07:00.359Z,35.43
2023-03-15T10:09:35.089Z,34.87
2023-03-15T10:12:15.349Z,34.63
2023-03-15T10:14:56.904Z,34.89
2023-03-15T10:17:55.937Z,35.06
2023-03-15T10:20:33.639Z,35.04
2023-03-15T10:23:29.129Z,34.92
2023-03-15T10:25:56.962Z,34.92
2023-03-15T10:28:27.901Z,34.83
2023-03-15T10:31:07.859Z,34.67
2023-03-15T10:33:37.252Z,34.64
2023-03-15T10:36:33.449Z,34.00
2023-03-15T10:39:00.036Z,33.92
2023-03-15T10:41:35.506Z,34.01
2023-03-15T10:44:12.500Z,33.89
2023-03-15T10:46:39.322Z,33.58
2023-03-15T10:49:15.360Z,33.35
2023-03-15T10:51:47.805Z,32.71
2023-03-15T10:54:20.622Z,32.18
2023-03-15T10:57:15.242Z,31.21
2023-03-15T11:00:06.119Z,30.14
2023-03-15T11:02:32.980Z,29.90
2023-03-15T11:05:02.321Z,28.99
2023-03-15T11:07:29.123Z,28.92
2023-03-15T11:10:00.355Z,28.05
2023-03-15T11:12:29.439Z,26.56
2023-03-15T11:15:18.770Z,25.68
2023-03-15T11:17:48.306Z,25.36
2023-03-15T11:20:35.171Z,24.04
2023-03-15T11:23:31.271Z,23.93
2023-03-15T11:25:57.932Z,24.45
2023-03-15T11:28:28.245Z,24.61
2023-03-15T11:31:00.409Z,25.30
2023-03-15T11:34:06.597Z,25.72
2023-03-15T11:36:36.893Z,26.16
2023-03-15T11:41:54.640Z,26.95
2023-03-15T11:44:50.815Z,27.24
2023-03-15T11:47:39.730Z,27.30
2023-03-15T11:50:10.354Z,27.69
2023-03-15T11:52:36.994Z,27.80
2023-03-15T11:55:04.467Z,27.85
2023-03-15T11:57:35.810Z,28.05
2023-03-15T12:00:46.277Z,28.34
2023-03-15T12:03:24.714Z,28.23
2023-03-15T12:05:58.909Z,28.46
2023-03-15T12:08:45.660Z,28.63
2023-03-15T12:11:32.450Z,28.78
2023-03-15T12:13:59.260Z,28.69
2023-03-15T12:16:28.894Z,28.96
2023-03-15T12:19:00.994Z,29.48
2023-03-15T12:21:43.971Z,29.53
2023-03-15T12:24:20.638Z,29.51
2023-03-15T12:27:00.843Z,29.26
2023-03-15T12:29:29.626Z,29.24
2023-03-15T12:32:04.620Z,29.38
2023-03-15T12:34:52.755Z,29.27
2023-03-15T12:37:46.947Z,29.45
2023-03-15T12:40:18.492Z,29.43
2023-03-15T12:42:48.411Z,29.19
2023-03-15T12:45:15.059Z,29.18
2023-03-15T12:47:46.700Z,29.30
2023-03-15T12:50:45.122Z,29.31
2023-03-15T12:53:21.956Z,29.01
2023-03-15T12:55:54.137Z,28.98
2023-03-15T12:58:34.488Z,28.75
2023-03-15T13:01:04.829Z,28.40
2023-03-15T13:03:34.701Z,28.36
2023-03-15T13:06:16.114Z,28.54
2023-03-15T13:09:01.703Z,28.43
2023-03-15T13:11:41.444Z,28.45
2023-03-15T13:14:41.166Z,28.41
2023-03-15T13:17:35.172Z,28.02
2023-03-15T13:20:33.037Z,27.87
2023-03-15T13:23:05.828Z,27.90
2023-03-15T13:25:42.483Z,28.45
2023-03-15T13:28:11.765Z,28.36
2023-03-15T13:30:47.402Z,28.54
2023-03-15T13:33:27.366Z,28.59
2023-03-15T13:36:00.761Z,28.65
2023-03-15T13:38:34.947Z,28.90
2023-03-15T13:41:04.372Z,28.87
2023-03-15T13:43:42.615Z,28.94
2023-03-15T13:46:09.591Z,29.17
2023-03-15T13:48:41.297Z,29.58
2023-03-15T13:51:24.697Z,29.48
2023-03-15T13:53:55.011Z,29.79
2023-03-15T13:56:37.387Z,29.77
2023-03-15T13:59:11.774Z,30.11
2023-03-15T14:01:41.777Z,30.48
2023-03-15T14:04:15.693Z,30.63
2023-03-15T14:06:45.130Z,30.95
2023-03-15T14:09:23.828Z,31.48
2023-03-15T14:12:01.905Z,32.39
2023-03-15T14:14:30.529Z,32.93
2023-03-15T14:17:05.447Z,33.25
2023-03-15T14:19:35.118Z,33.95
2023-03-15T14:22:13.170Z,34.66
2023-03-15T14:24:44.005Z,35.06
2023-03-15T14:27:20.141Z,36.10
2023-03-15T14:29:54.916Z,36.52
2023-03-15T14:32:29.252Z,37.11
2023-03-15T14:34:58.922Z,38.30
2023-03-15T14:37:38.908Z,38.80
2023-03-15T14:40:15.401Z,40.08
2023-03-15T14:42:43.736Z,42.17
2023-03-15T14:45:11.090Z,42.88
2023-03-15T14:47:55.579Z,44.83
2023-03-15T14:50:27.195Z,45.95
2023-03-15T14:52:56.273Z,46.47
2023-03-15T14:55:27.140Z,47.01
2023-03-15T14:57:53.912Z,48.04
2023-03-15T15:00:21.170Z,48.33
2023-03-15T15:02:51.549Z,49.21
2023-03-15T15:05:30.470Z,49.34
2023-03-15T15:08:06.738Z,49.68
2023-03-15T15:10:34.297Z,49.78
2023-03-15T15:13:06.839Z,50.28
2023-03-15T15:15:43.906Z,50.81
2023-03-15T15:18:14.918Z,50.54
2023-03-15T15:20:42.854Z,50.87
2023-03-15T15:23:17.343Z,51.51
2023-03-15T15:25:46.558Z,52.43
2023-03-15T15:28:27.355Z,52.19
2023-03-15T15:31:00.363Z,52.46
2023-03-15T15:33:27.281Z,52.63
2023-03-15T15:35:56.178Z,52.38
2023-03-15T15:38:31.664Z,53.26
2023-03-15T15:40:58.279Z,53.54
2023-03-15T15:43:24.991Z,53.28
2023-03-15T15:45:51.645Z,54.04
2023-03-15T15:48:18.480Z,54.33
2023-03-15T15:50:45.329Z,55.14
2023-03-15T15:53:16.556Z,54.80
2023-03-15T15:55:43.808Z,55.41
2023-03-15T15:58:12.143Z,55.73
2023-03-15T16:00:38.950Z,56.13
2023-03-15T16:03:14.584Z,55.95
2023-03-15T16:05:42.058Z,57.11
2023-03-15T16:08:34.605Z,57.34
2023-03-15T16:11:01.448Z,57.86
2023-03-15T16:13:28.270Z,57.93
2023-03-15T16:15:55.080Z,58.17
2023-03-15T16:18:22.151Z,58.76
2023-03-15T16:20:48.866Z,58.91
2023-03-15T16:23:23.123Z,59.51
2023-03-15T16:25:56.094Z,59.62
2023-03-15T16:28:23.223Z,59.74
2023-03-15T16:30:50.520Z,60.07
2023-03-15T16:33:20.006Z,60.46
2023-03-15T16:35:49.649Z,60.80
2023-03-15T16:38:28.451Z,60.90
2023-03-15T16:40:55.099Z,60.74
2023-03-15T16:43:21.917Z,60.85
2023-03-15T16:45:48.882Z,61.02
2023-03-15T16:48:15.913Z,61.42
2023-03-15T16:50:44.101Z,61.77
2023-03-15T16:53:12.887Z,61.96
2023-03-15T16:55:40.227Z,61.72
2023-03-15T16:58:15.807Z,61.54
2023-03-15T17:00:44.468Z,62.21
2023-03-15T17:03:12.064Z,62.65
2023-03-15T17:05:41.120Z,62.01
2023-03-15T17:08:16.980Z,62.59
2023-03-15T17:10:44.338Z,62.19
2023-03-15T17:13:14.152Z,62.69
2023-03-15T17:15:41.595Z,62.63
2023-03-15T17:18:19.422Z,62.79
2023-03-15T17:20:48.637Z,62.53
2023-03-15T17:23:16.777Z,63.10
2023-03-15T17:25:43.618Z,63.89
2023-03-15T17:28:10.779Z,63.93
2023-03-15T17:30:37.848Z,63.36
2023-03-15T17:33:05.237Z,63.78
2023-03-15T17:35:35.749Z,63.81
2023-03-15T17:38:05.450Z,64.48
2023-03-15T17:40:35.301Z,64.75
2023-03-15T17:43:03.199Z,64.84
2023-03-15T17:45:34.083Z,65.22
2023-03-15T17:48:01.589Z,64.91
2023-03-15T17:50:31.133Z,65.45
2023-03-15T17:53:04.486Z,65.89
2023-03-15T17:55:34.307Z,66.14
2023-03-15T17:58:11.592Z,65.50
2023-03-15T18:00:39.257Z,66.43
2023-03-15T18:03:06.098Z,66.18
2023-03-15T18:05:32.944Z,65.71
2023-03-15T18:08:00.489Z,65.96
2023-03-15T18:10:35.313Z,65.98
2023-03-15T18:13:03.590Z,66.37
2023-03-15T18:15:31.171Z,66.16
2023-03-15T18:17:58.335Z,66.25
2023-03-15T18:20:27.556Z,66.52
2023-03-15T18:22:54.681Z,66.66
2023-03-15T18:25:28.371Z,66.55
2023-03-15T18:27:55.339Z,66.19
2023-03-15T18:30:24.316Z,66.29
2023-03-15T18:32:52.995Z,66.42
2023-03-15T18:35:34.450Z,66.29
2023-03-15T18:38:03.354Z,66.60
2023-03-15T18:40:32.120Z,66.30
2023-03-15T18:42:59.932Z,66.78
2023-03-15T18:45:30.207Z,66.35
2023-03-15T18:47:59.164Z,66.45
2023-03-15T18:50:27.227Z,66.56
2023-03-15T18:52:54.185Z,65.93
2023-03-15T18:55:22.727Z,66.39
2023-03-15T18:57:51.737Z,66.50
2023-03-15T19:00:25.262Z,66.41
2023-03-15T19:02:56.687Z,66.53
2023-03-15T19:05:27.306Z,66.14
2023-03-15T19:07:54.061Z,66.65
2023-03-15T19:10:22.619Z,66.57
2023-03-15T19:12:50.090Z,66.62
2023-03-15T19:15:19.205Z,66.76
2023-03-15T19:17:48.185Z,66.68
2023-03-15T19:20:17.838Z,66.70
2023-03-15T19:22:44.584Z,66.64
2023-03-15T19:25:13.334Z,66.82
2023-03-15T19:27:41.698Z,66.87
2023-03-15T19:30:15.822Z,67.06
2023-03-15T19:32:45.127Z,67.32
2023-03-15T19:35:12.056Z,67.22
2023-03-15T19:37:38.837Z,67.16
2023-03-15T19:40:09.019Z,67.38
2023-03-15T19:42:35.704Z,67.24
2023-03-15T19:45:05.681Z,67.51
2023-03-15T19:47:33.271Z,67.68
2023-03-15T19:50:00.995Z,67.53
2023-03-15T19:52:28.592Z,67.98
2023-03-15T19:54:55.815Z,67.95
2023-03-15T19:57:22.608Z,68.32
2023-03-15T19:59:49.300Z,68.26
2023-03-15T20:02:16.347Z,68.20
2023-03-15T20:04:43.089Z,68.06
2023-03-15T20:07:10.648Z,68.36
2023-03-15T20:09:40.977Z,68.17
2023-03-15T20:12:11.195Z,68.30
2023-03-15T20:14:38.352Z,67.79
2023-03-15T20:17:05.398Z,67.95
2023-03-15T20:19:32.345Z,67.81
2023-03-15T20:21:58.982Z,67.74
2023-03-15T20:24:25.709Z,67.96
2023-03-15T20:26:52.974Z,67.57
2023-03-15T20:29:21.763Z,67.63
2023-03-15T20:31:49.154Z,67.60
2023-03-15T20:34:16.769Z,67.53
2023-03-15T20:36:44.341Z,67.70
2023-03-15T20:39:11.056Z,67.16
2023-03-15T20:41:38.529Z,67.16
2023-03-15T20:44:05.371Z,67.18
2023-03-15T20:46:32.377Z,66.95
2023-03-15T20:48:59.062Z,67.08
2023-03-15T20:51:26.566Z,67.41
2023-03-15T20:53:53.468Z,67.24
2023-03-15T20:56:21.428Z,67.40
2023-03-15T20:58:48.279Z,67.26
2023-03-15T21:01:16.283Z,67.31
2023-03-15T21:03:45.014Z,67.48
2023-03-15T21:06:12.760Z,67.00
2023-03-15T21:08:41.084Z,67.60
2023-03-15T21:11:08.268Z,67.43
2023-03-15T21:13:35.279Z,67.63
2023-03-15T21:16:03.938Z,67.98
2023-03-15T21:18:31.733Z,68.06
2023-03-15T21:21:06.800Z,67.60
2023-03-15T21:23:34.384Z,67.86
2023-03-15T21:26:04.109Z,67.84
2023-03-15T21:28:31.333Z,67.82
2023-03-15T21:30:58.637Z,67.80
2023-03-15T21:33:28.851Z,68.16
2023-03-15T21:35:56.485Z,68.20
2023-03-15T21:38:23.256Z,67.62
2023-03-15T21:40:57.687Z,67.42
2023-03-15T21:43:29.091Z,67.60
2023-03-15T21:46:05.298Z,67.46
2023-03-15T21:48:33.412Z,67.41
2023-03-15T21:51:01.447Z,67.63
2023-03-15T21:53:29.210Z,67.34
2023-03-15T21:55:57.245Z,67.21
2023-03-15T21:58:25.763Z,67.20
2023-03-15T22:01:07.188Z,67.47
2023-03-15T22:03:35.481Z,67.50
2023-03-15T22:06:02.776Z,67.76
2023-03-15T22:08:30.036Z,67.59
2023-03-15T22:10:58.184Z,67.49
2023-03-15T22:13:25.644Z,67.52
2023-03-15T22:15:52.795Z,67.54
2023-03-15T22:18:20.070Z,67.93
2023-03-15T22:20:48.129Z,67.81
2023-03-15T22:23:14.821Z,68.09
2023-03-15T22:25:42.415Z,67.89
2023-03-15T22:28:09.495Z,68.26
2023-03-15T22:30:36.200Z,68.23
2023-03-15T22:33:03.043Z,68.24
2023-03-15T22:35:29.810Z,67.89
2023-03-15T22:37:56.401Z,68.19
2023-03-15T22:40:25.182Z,68.13
2023-03-15T22:42:52.265Z,68.12
2023-03-15T22:45:20.097Z,68.10
2023-03-15T22:47:48.506Z,68.37
2023-03-15T22:50:15.872Z,68.12
2023-03-15T22:52:43.027Z,68.09
2023-03-15T22:55:10.883Z,68.13
2023-03-15T22:57:38.039Z,68.43
2023-03-15T23:00:06.855Z,67.89
2023-03-15T23:02:33.564Z,68.31
2023-03-15T23:05:01.087Z,68.20
2023-03-15T23:07:27.924Z,67.95
2023-03-15T23:09:55.431Z,68.37
2023-03-15T23:12:27.110Z,68.17
2023-03-15T23:15:01.991Z,68.42
2023-03-15T23:17:30.806Z,68.51
2023-03-15T23:19:57.547Z,68.68
2023-03-15T23:22:24.390Z,68.64
2023-03-15T23:24:51.129Z,68.67
2023-03-15T23:27:17.979Z,68.58
2023-03-15T23:29:54.118Z,68.68
2023-03-15T23:32:24.314Z,68.40
2023-03-15T23:34:52.956Z,68.54
2023-03-15T23:37:20.251Z,68.93
2023-03-15T23:39:47.328Z,68.91
2023-03-15T23:42:13.988Z,68.75
2023-03-15T23:44:40.739Z,68.96
2023-03-15T23:47:07.717Z,68.78
2023-03-15T23:49:34.426Z,69.05
2023-03-15T23:52:04.643Z,68.86
2023-03-15T23:54:41.717Z,69.15
2023-03-15T23:57:10.511Z,68.84
2023-03-15T23:59:38.540Z,69.31
